Time;durP1;ratioP1;P1;durP2;ratioP2;P2;SDS_P1;SDS_P2;PMS_P1;PMS_P2;Temp;Humidity;BMP_temperature;BMP_pressure;BME280_temperature;BME280_humidity;BME280_pressure;Samples;Min_cycle;Max_cycle;Signal;HPM_P1;HPM_P2
2022/08/26 00:00:54;;;;;;;;;;;24.50;1.00;;;;;;5056232;28;19916;-84
2022/08/26 00:03:20;;;;;;;;;;;24.40;1.00;;;;;;5054725;28;20007;-85
2022/08/26 00:05:46;;;;;;;;;;;24.30;1.00;;;;;;5055836;28;20295;-85
2022/08/26 00:08:12;;;;;;;;;;;24.20;99.90;;;;;;5055920;28;19916;-84
2022/08/26 00:10:38;;;;;;;;;;;24.20;99.90;;;;;;5054760;28;20004;-85
2022/08/26 00:13:04;;;;;;;;;;;24.20;99.90;;;;;;5038087;28;19944;-84
2022/08/26 00:15:30;;;;;;;;;;;24.20;99.90;;;;;;5055757;28;20375;-84
2022/08/26 00:17:55;;;;;;;;;;;24.20;1.00;;;;;;5055610;28;19913;-84
2022/08/26 00:20:24;;;;;;;;;;;24.10;1.00;;;;;;5038017;28;20007;-84
2022/08/26 00:22:49;;;;;;;;;;;24.10;1.00;;;;;;5054604;28;19909;-84
2022/08/26 00:25:15;;;;;;;;;;;24.10;26.90;;;;;;5055733;28;19912;-84
2022/08/26 00:27:42;;;;;;;;;;;24.00;62.40;;;;;;5055456;28;19971;-85
2022/08/26 00:30:10;;;;;;;;;;;24.00;99.90;;;;;;5037942;28;19944;-85
2022/08/26 00:32:36;;;;;;;;;;;23.90;99.90;;;;;;5054341;28;19916;-83
2022/08/26 00:35:03;;;;;;;;;;;23.90;99.90;;;;;;5037673;28;19913;-84
2022/08/26 00:37:28;;;;;;;;;;;23.90;99.90;;;;;;5055247;28;19909;-84
2022/08/26 00:39:54;;;;;;;;;;;23.90;1.00;;;;;;5055553;28;20375;-84
2022/08/26 00:42:19;;;;;;;;;;;23.80;1.00;;;;;;5037524;28;19909;-85
2022/08/26 00:44:45;;;;;;;;;;;23.80;1.00;;;;;;5037432;28;19915;-85
2022/08/26 00:47:17;;;;;;;;;;;23.70;1.00;;;;;;5037207;28;20593;-85
2022/08/26 00:49:46;;;;;;;;;;;23.70;1.00;;;;;;5054174;28;19913;-84
2022/08/26 00:52:15;;;;;;;;;;;23.70;1.00;;;;;;5053812;28;19939;-84
2022/08/26 00:54:45;;;;;;;;;;;23.60;1.00;;;;;;5053951;28;20372;-84
2022/08/26 00:57:13;;;;;;;;;;;23.50;1.00;;;;;;5037037;28;19959;-83
2022/08/26 00:59:39;;;;;;;;;;;23.40;1.00;;;;;;5054604;28;19909;-84
2022/08/26 01:02:05;;;;;;;;;;;23.40;1.00;;;;;;5054937;28;20362;-85
2022/08/26 01:04:32;;;;;;;;;;;23.40;1.00;;;;;;5053771;28;19939;-85
2022/08/26 01:06:58;;;;;;;;;;;23.40;1.00;;;;;;5053559;28;20315;-84
2022/08/26 01:09:23;;;;;;;;;;;23.40;1.00;;;;;;5054888;28;19909;-86
2022/08/26 01:11:51;;;;;;;;;;;23.40;1.00;;;;;;5037053;28;19915;-84
2022/08/26 01:14:18;;;;;;;;;;;23.40;1.00;;;;;;5053583;28;20380;-84
2022/08/26 01:16:43;;;;;;;;;;;23.40;1.00;;;;;;5053146;28;19913;-83
2022/08/26 01:19:17;;;;;;;;;;;23.40;1.00;;;;;;5054743;28;19915;-84
2022/08/26 01:21:47;;;;;;;;;;;23.30;1.00;;;;;;5054624;28;19912;-84
2022/08/26 01:24:12;;;;;;;;;;;23.30;1.00;;;;;;5053266;28;19909;-84
2022/08/26 01:26:42;;;;;;;;;;;23.30;1.00;;;;;;5054553;28;20327;-84
2022/08/26 01:29:11;;;;;;;;;;;23.30;1.00;;;;;;5053330;28;19908;-84
2022/08/26 01:31:45;;;;;;;;;;;23.30;1.00;;;;;;5054388;28;19909;-84
2022/08/26 01:34:17;;;;;;;;;;;23.30;1.00;;;;;;5053211;28;19939;-84
2022/08/26 01:36:43;;;;;;;;;;;23.30;1.00;;;;;;5036237;28;19913;-84
2022/08/26 01:39:08;;;;;;;;;;;23.30;1.00;;;;;;5053090;28;20004;-85
2022/08/26 01:41:35;;;;;;;;;;;23.30;1.00;;;;;;5036319;28;20443;-84
2022/08/26 01:44:01;;;;;;;;;;;23.30;1.00;;;;;;5052931;28;19952;-83
2022/08/26 01:46:28;;;;;;;;;;;23.20;1.00;;;;;;5052564;28;20283;-83
2022/08/26 01:48:55;;;;;;;;;;;23.20;1.00;;;;;;5052933;28;19916;-84
2022/08/26 01:51:23;;;;;;;;;;;23.20;1.00;;;;;;5052707;28;19983;-85
2022/08/26 01:53:48;;;;;;;;;;;23.20;1.00;;;;;;5054169;28;19924;-83
2022/08/26 01:56:14;;;;;;;;;;;23.10;1.00;;;;;;5035841;28;20386;-84
2022/08/26 01:59:06;;;;;;;;;;;23.10;1.00;;;;;;5061263;28;19908;-84
2022/08/26 02:01:32;;;;;;;;;;;23.00;1.00;;;;;;5068763;28;19996;-84
2022/08/26 02:04:02;;;;;;;;;;;22.90;1.00;;;;;;5035854;28;20398;-85
2022/08/26 02:06:28;;;;;;;;;;;22.90;1.00;;;;;;5053527;28;20299;-84
2022/08/26 02:08:54;;;;;;;;;;;22.90;1.00;;;;;;5052509;28;19954;-83
2022/08/26 02:11:21;;;;;;;;;;;22.90;1.00;;;;;;5051542;28;20284;-84
2022/08/26 02:13:49;;;;;;;;;;;22.90;1.00;;;;;;5053546;28;19908;-84
2022/08/26 02:16:17;;;;;;;;;;;22.80;1.00;;;;;;5052017;28;19960;-86
2022/08/26 02:18:42;;;;;;;;;;;22.80;1.00;;;;;;5035666;28;19916;-85
2022/08/26 02:21:08;;;;;;;;;;;22.80;1.00;;;;;;5053485;28;19909;-84
2022/08/26 02:23:34;;;;;;;;;;;22.70;1.00;;;;;;5052291;28;19909;-83
2022/08/26 02:26:06;;;;;;;;;;;22.60;1.00;;;;;;5035379;28;19915;-84
2022/08/26 02:28:35;;;;;;;;;;;22.60;3.50;;;;;;5035430;28;19913;-84
2022/08/26 02:31:01;;;;;;;;;;;22.60;3.30;;;;;;5052168;28;19909;-84
2022/08/26 02:33:27;;;;;;;;;;;22.60;2.60;;;;;;5053202;28;20295;-84
2022/08/26 02:35:53;;;;;;;;;;;22.70;1.00;;;;;;5051742;28;19940;-84
2022/08/26 02:38:18;;;;;;;;;;;22.70;1.00;;;;;;5035230;28;19952;-85
2022/08/26 02:40:44;;;;;;;;;;;22.60;1.70;;;;;;5035339;28;19915;-85
2022/08/26 02:43:11;;;;;;;;;;;22.60;7.00;;;;;;5102308;22;20306;-84
2022/08/26 02:45:36;;;;;;;;;;;22.50;9.90;;;;;;5113181;28;20454;-84
2022/08/26 02:48:05;;;;;;;;;;;22.40;13.80;;;;;;5113353;28;19935;-84
2022/08/26 02:50:33;;;;;;;;;;;22.50;14.20;;;;;;5095208;28;19912;-85
2022/08/26 02:52:58;;;;;;;;;;;22.50;14.60;;;;;;5104336;28;20007;-84
2022/08/26 02:55:24;;;;;;;;;;;22.40;14.00;;;;;;5074278;28;20371;-85
2022/08/26 02:57:50;;;;;;;;;;;22.40;14.90;;;;;;5071355;28;19920;-84
2022/08/26 03:00:16;;;;;;;;;;;22.50;14.50;;;;;;5082829;28;20008;-84
2022/08/26 03:02:42;;;;;;;;;;;22.50;14.60;;;;;;5084656;28;20358;-85
2022/08/26 03:05:07;;;;;;;;;;;22.60;10.00;;;;;;5074786;28;19912;-84
2022/08/26 03:07:33;;;;;;;;;;;22.70;8.80;;;;;;5074661;28;19908;-84
2022/08/26 03:09:59;;;;;;;;;;;22.70;5.30;;;;;;5071393;28;19912;-84
2022/08/26 03:12:25;;;;;;;;;;;22.80;2.50;;;;;;5054638;28;20287;-84
2022/08/26 03:14:50;;;;;;;;;;;22.90;1.00;;;;;;5054732;28;19908;-83
2022/08/26 03:17:16;;;;;;;;;;;23.00;1.00;;;;;;5072464;28;20367;-84
2022/08/26 03:19:41;;;;;;;;;;;23.00;1.00;;;;;;5054681;28;19916;-84
2022/08/26 03:22:07;;;;;;;;;;;23.00;1.00;;;;;;5072247;28;19912;-84
2022/08/26 03:24:32;;;;;;;;;;;23.00;1.00;;;;;;5072546;28;19966;-85
2022/08/26 03:26:58;;;;;;;;;;;23.00;1.00;;;;;;5054259;28;20368;-87
2022/08/26 03:32:07;;;;;;;;;;;23.00;1.00;;;;;;5072505;28;19919;-84
2022/08/26 03:34:33;;;;;;;;;;;23.00;1.00;;;;;;5072459;28;19999;-84
2022/08/26 03:36:59;;;;;;;;;;;23.00;1.00;;;;;;5054227;28;19916;-84
2022/08/26 03:39:25;;;;;;;;;;;23.10;1.00;;;;;;5054597;28;19908;-84
2022/08/26 03:41:51;;;;;;;;;;;23.00;1.00;;;;;;5054464;28;19909;-84
2022/08/26 03:44:16;;;;;;;;;;;23.10;1.00;;;;;;5054430;28;20007;-85
2022/08/26 03:46:42;;;;;;;;;;;23.10;1.00;;;;;;5054579;28;19947;-84
2022/08/26 03:49:07;;;;;;;;;;;23.10;1.00;;;;;;5054402;28;19908;-84
2022/08/26 03:51:34;;;;;;;;;;;23.10;1.00;;;;;;5054441;28;20356;-85
2022/08/26 03:54:01;;;;;;;;;;;23.20;1.00;;;;;;5054361;28;19931;-84
2022/08/26 03:56:27;;;;;;;;;;;23.20;1.00;;;;;;5054071;28;19947;-84
2022/08/26 03:58:53;;;;;;;;;;;23.20;1.00;;;;;;5072316;28;20358;-83
2022/08/26 04:01:18;;;;;;;;;;;23.20;1.00;;;;;;5072242;28;19951;-84
2022/08/26 04:03:59;;;;;;;;;;;23.20;1.00;;;;;;5072137;28;19909;-84
2022/08/26 04:06:27;;;;;;;;;;;23.10;1.00;;;;;;5053995;28;19923;-84
2022/08/26 04:08:54;;;;;;;;;;;23.10;1.00;;;;;;5054273;28;20337;-83
2022/08/26 04:11:21;;;;;;;;;;;23.10;1.00;;;;;;5054154;28;19957;-84
2022/08/26 04:13:47;;;;;;;;;;;23.00;1.00;;;;;;5054157;28;19913;-83
2022/08/26 04:16:13;;;;;;;;;;;23.10;1.00;;;;;;5053878;28;20382;-85
2022/08/26 04:18:39;;;;;;;;;;;23.10;1.00;;;;;;5054231;28;19913;-84
2022/08/26 04:21:05;;;;;;;;;;;23.20;1.00;;;;;;5054248;28;19908;-85
2022/08/26 04:23:31;;;;;;;;;;;23.20;1.00;;;;;;5053954;28;19909;-86
2022/08/26 04:25:56;;;;;;;;;;;23.20;1.00;;;;;;5054023;28;20032;-85
2022/08/26 04:28:22;;;;;;;;;;;23.20;1.00;;;;;;5054167;28;19908;-85
2022/08/26 04:30:48;;;;;;;;;;;23.20;1.00;;;;;;5072138;28;19913;-84
2022/08/26 04:33:14;;;;;;;;;;;23.20;1.00;;;;;;5054082;28;19909;-84
2022/08/26 04:35:39;;;;;;;;;;;23.30;1.00;;;;;;5057158;28;20380;-86
2022/08/26 04:38:05;;;;;;;;;;;23.20;1.00;;;;;;5057753;28;20015;-86
2022/08/26 04:40:30;;;;;;;;;;;23.30;1.00;;;;;;5075682;28;19940;-85
2022/08/26 04:42:56;;;;;;;;;;;23.30;1.00;;;;;;5057403;28;20382;-84
2022/08/26 04:45:22;;;;;;;;;;;23.30;1.00;;;;;;5075551;28;19923;-86
2022/08/26 04:47:47;;;;;;;;;;;23.40;1.00;;;;;;5057344;28;19912;-85
2022/08/26 04:50:14;;;;;;;;;;;23.40;1.00;;;;;;5057537;28;20275;-86
2022/08/26 06:12:04;;;;;;;;;;;;;;;;;;;;;
2022/08/26 07:28:27;;;;;;;;;;;24.10;1.00;;;;;;5050741;28;19923;-85
2022/08/26 07:36:56;;;;;;;;;;;24.20;1.00;;;;;;4971147;28;19921;-84
2022/08/26 07:39:22;;;;;;;;;;;24.20;1.00;;;;;;5037645;28;19909;-84
2022/08/26 07:41:47;;;;;;;;;;;24.30;1.00;;;;;;5019116;28;19909;-85
2022/08/26 07:44:13;;;;;;;;;;;24.30;1.00;;;;;;5011917;28;19909;-84
2022/08/26 07:46:39;;;;;;;;;;;24.30;1.00;;;;;;5012189;28;20373;-85
2022/08/26 07:49:05;;;;;;;;;;;24.30;1.00;;;;;;5011925;28;19941;-85
2022/08/26 07:51:31;;;;;;;;;;;24.40;1.00;;;;;;5011785;28;20373;-84
2022/08/26 07:53:56;;;;;;;;;;;24.40;1.00;;;;;;5011460;28;19909;-84
2022/08/26 07:56:22;;;;;;;;;;;24.30;1.00;;;;;;5012540;28;20020;-84
2022/08/26 07:58:48;;;;;;;;;;;24.20;1.00;;;;;;5013775;28;19917;-85
2022/08/26 08:01:14;;;;;;;;;;;24.20;1.00;;;;;;5012917;28;20375;-84
2022/08/26 08:03:40;;;;;;;;;;;24.20;1.00;;;;;;5011861;28;20008;-82
2022/08/26 08:06:05;;;;;;;;;;;24.30;1.00;;;;;;5011262;28;19917;-83
2022/08/26 08:08:31;;;;;;;;;;;24.20;1.00;;;;;;5011264;28;19909;-82
2022/08/26 08:10:57;;;;;;;;;;;24.20;1.00;;;;;;5014435;28;20001;-82
2022/08/26 08:13:23;;;;;;;;;;;24.10;1.00;;;;;;5015348;28;19945;-82
2022/08/26 08:15:48;;;;;;;;;;;24.10;1.00;;;;;;5022122;28;19913;-83
2022/08/26 08:18:15;;;;;;;;;;;24.20;1.00;;;;;;5016586;28;19918;-83
2022/08/26 08:20:40;;;;;;;;;;;24.20;1.00;;;;;;5014706;28;19909;-84
2022/08/26 08:23:06;;;;;;;;;;;24.20;1.00;;;;;;5015044;28;19916;-84
2022/08/26 08:25:31;;;;;;;;;;;24.20;1.00;;;;;;5014842;28;19920;-85
2022/08/26 08:27:57;;;;;;;;;;;24.10;1.00;;;;;;5014685;28;20361;-85
2022/08/26 08:30:23;;;;;;;;;;;24.20;1.00;;;;;;5015074;28;19909;-83
2022/08/26 08:32:48;;;;;;;;;;;24.20;1.00;;;;;;5014950;28;19921;-83
2022/08/26 08:35:15;;;;;;;;;;;24.20;1.00;;;;;;5014942;28;19910;-84
2022/08/26 08:37:42;;;;;;;;;;;24.30;1.00;;;;;;5014620;28;19944;-83
2022/08/26 08:40:08;;;;;;;;;;;24.30;1.00;;;;;;5014098;28;19909;-83
2022/08/26 08:42:34;;;;;;;;;;;24.30;1.00;;;;;;5014529;28;20020;-83
2022/08/26 08:45:02;;;;;;;;;;;24.40;1.00;;;;;;5014530;28;19952;-83
2022/08/26 08:47:33;;;;;;;;;;;24.30;1.00;;;;;;5014206;28;19910;-83
2022/08/26 08:50:05;;;;;;;;;;;24.30;1.00;;;;;;5014604;28;19932;-84
2022/08/26 08:52:34;;;;;;;;;;;24.30;1.00;;;;;;5014567;28;20361;-83
2022/08/26 08:55:01;;;;;;;;;;;24.40;1.00;;;;;;5016185;28;20384;-83
2022/08/26 08:57:30;;;;;;;;;;;24.40;1.00;;;;;;5014417;28;20339;-83
2022/08/26 09:00:07;;;;;;;;;;;24.60;1.00;;;;;;5014300;28;19909;-84
2022/08/26 09:02:34;;;;;;;;;;;24.60;99.90;;;;;;5015028;28;20276;-84
2022/08/26 09:05:20;;;;;;;;;;;24.70;99.90;;;;;;5014247;28;20021;-84
2022/08/26 09:08:00;;;;;;;;;;;24.70;99.90;;;;;;5014080;28;19917;-84
2022/08/26 09:10:31;;;;;;;;;;;24.70;99.90;;;;;;5023697;28;19914;-83
2022/08/26 09:12:57;;;;;;;;;;;24.70;99.90;;;;;;5030278;28;19920;-84
2022/08/26 09:15:35;;;;;;;;;;;24.60;99.90;;;;;;5030448;28;19968;-84
2022/08/26 09:18:00;;;;;;;;;;;24.60;99.90;;;;;;5030316;28;19913;-83
2022/08/26 09:20:26;;;;;;;;;;;24.60;99.90;;;;;;5029664;28;19909;-83
2022/08/26 09:22:51;;;;;;;;;;;24.60;99.90;;;;;;5030172;28;19910;-84
2022/08/26 09:25:17;;;;;;;;;;;24.60;1.00;;;;;;5030114;28;20392;-83
2022/08/26 09:27:47;;;;;;;;;;;24.70;99.90;;;;;;5029819;28;19965;-83
2022/08/26 09:30:14;;;;;;;;;;;24.70;99.90;;;;;;5014796;28;19968;-84
2022/08/26 09:32:40;;;;;;;;;;;24.70;99.90;;;;;;5029839;28;19960;-84
2022/08/26 09:35:23;;;;;;;;;;;24.70;99.90;;;;;;5014525;28;19910;-83
2022/08/26 09:37:48;;;;;;;;;;;24.80;99.90;;;;;;5029654;28;19924;-84
2022/08/26 09:40:17;;;;;;;;;;;24.80;99.90;;;;;;5029961;28;19910;-83
2022/08/26 09:42:42;;;;;;;;;;;24.70;99.90;;;;;;5029872;28;20004;-83
2022/08/26 09:45:10;;;;;;;;;;;24.70;99.90;;;;;;5029799;28;19959;-85
2022/08/26 09:47:37;;;;;;;;;;;24.70;99.90;;;;;;5015655;28;19910;-85
2022/08/26 09:50:21;;;;;;;;;;;24.70;99.90;;;;;;5031671;28;20327;-85
2022/08/26 09:53:01;;;;;;;;;;;24.70;99.90;;;;;;5031742;28;19913;-83
2022/08/26 09:55:27;;;;;;;;;;;24.80;99.90;;;;;;5031597;28;20468;-86
2022/08/26 09:57:53;;;;;;;;;;;24.90;99.90;;;;;;5032012;28;19960;-85
2022/08/26 10:00:38;;;;;;;;;;;25.00;99.90;;;;;;5030462;28;20304;-86
2022/08/26 10:03:07;;;;;;;;;;;25.10;99.90;;;;;;5031281;28;19910;-84
2022/08/26 10:05:44;;;;;;;;;;;25.10;99.90;;;;;;5030681;28;19909;-83
2022/08/26 10:08:20;;;;;;;;;;;25.10;99.90;;;;;;5030375;28;20515;-85
2022/08/26 10:10:46;;;;;;;;;;;25.10;99.90;;;;;;5030782;28;19935;-85
2022/08/26 10:13:17;;;;;;;;;;;25.10;99.90;;;;;;5030605;28;20377;-85
2022/08/26 10:16:03;;;;;;;;;;;25.10;99.90;;;;;;5030137;28;19917;-83
2022/08/26 10:18:31;;;;;;;;;;;25.10;99.90;;;;;;5014067;28;20003;-83
2022/08/26 10:21:01;;;;;;;;;;;25.10;99.90;;;;;;5029465;28;19996;-83
2022/08/26 10:23:28;;;;;;;;;;;25.20;99.90;;;;;;5014081;28;19910;-83
2022/08/26 10:25:56;;;;;;;;;;;25.30;99.90;;;;;;5013949;28;19944;-84
2022/08/26 10:28:37;;;;;;;;;;;25.30;99.90;;;;;;5029250;28;20509;-83
2022/08/26 10:31:21;;;;;;;;;;;25.40;1.00;;;;;;5029055;28;20013;-85
2022/08/26 10:33:47;;;;;;;;;;;25.40;1.00;;;;;;5028845;28;19909;-83
2022/08/26 10:39:02;;;;;;;;;;;25.60;1.00;;;;;;5014199;28;19921;-84
2022/08/26 10:41:30;;;;;;;;;;;25.60;1.00;;;;;;5029223;28;19963;-83
2022/08/26 10:43:57;;;;;;;;;;;25.80;99.90;;;;;;5029140;28;19910;-84
2022/08/26 10:46:27;;;;;;;;;;;25.90;99.90;;;;;;5028924;28;19910;-84
2022/08/26 10:48:56;;;;;;;;;;;26.00;99.90;;;;;;5029090;28;19916;-83
2022/08/26 10:51:35;;;;;;;;;;;26.10;1.00;;;;;;5029029;28;19915;-84
2022/08/26 10:54:08;;;;;;;;;;;26.00;1.00;;;;;;5028594;28;20431;-86
2022/08/26 10:56:36;;;;;;;;;;;26.10;1.00;;;;;;5027728;28;20423;-86
2022/08/26 10:59:01;;;;;;;;;;;26.10;1.00;;;;;;5018785;28;19909;-85
2022/08/26 11:01:45;;;;;;;;;;;26.20;1.00;;;;;;5032214;28;19952;-85
2022/08/26 11:04:29;;;;;;;;;;;26.20;99.90;;;;;;5032042;28;19980;-86
2022/08/26 11:07:13;;;;;;;;;;;26.20;99.90;;;;;;5032295;28;19939;-86
2022/08/26 11:09:46;;;;;;;;;;;26.30;99.90;;;;;;5032275;28;20098;-87
2022/08/26 11:12:32;;;;;;;;;;;26.30;1.00;;;;;;5031978;28;19909;-85
2022/08/26 11:14:57;;;;;;;;;;;26.40;1.00;;;;;;5031468;28;19913;-87
2022/08/26 11:17:41;;;;;;;;;;;26.50;1.00;;;;;;5031663;28;19920;-87
2022/08/26 11:20:07;;;;;;;;;;;26.30;99.90;;;;;;5033855;28;20000;-85
2022/08/26 11:22:34;;;;;;;;;;;26.30;1.00;;;;;;5034243;28;19945;-84
2022/08/26 11:25:03;;;;;;;;;;;26.30;99.90;;;;;;5034051;28;19909;-84
2022/08/26 11:27:34;;;;;;;;;;;26.30;1.00;;;;;;5030912;28;19928;-87
2022/08/26 11:30:07;;;;;;;;;;;26.20;99.90;;;;;;5028363;28;19963;-84
2022/08/26 11:32:33;;;;;;;;;;;26.30;99.90;;;;;;5028101;28;19913;-85
2022/08/26 11:34:59;;;;;;;;;;;26.30;1.00;;;;;;5028367;28;19960;-86
2022/08/26 11:37:30;;;;;;;;;;;26.30;99.90;;;;;;5027957;28;20369;-86
2022/08/26 11:39:56;;;;;;;;;;;26.30;1.00;;;;;;5013190;28;19909;-87
2022/08/26 11:42:21;;;;;;;;;;;26.20;1.00;;;;;;5028337;28;19960;-87
2022/08/26 11:44:47;;;;;;;;;;;26.10;97.30;;;;;;5032215;28;20380;-87
2022/08/26 11:47:13;;;;;;;;;;;26.00;1.00;;;;;;5032395;28;20328;-88
2022/08/26 11:49:39;;;;;;;;;;;25.90;1.00;;;;;;5032401;28;19909;-87
2022/08/26 11:52:11;;;;;;;;;;;25.90;99.90;;;;;;5032533;28;19909;-86
2022/08/26 11:54:36;;;;;;;;;;;25.90;99.90;;;;;;5032299;28;19916;-85
2022/08/26 11:57:03;;;;;;;;;;;25.80;1.00;;;;;;5015491;28;19914;-86
2022/08/26 11:59:32;;;;;;;;;;;25.80;1.00;;;;;;5016954;28;19916;-86
2022/08/26 12:01:58;;;;;;;;;;;25.90;99.90;;;;;;5032209;28;19918;-85
2022/08/26 12:04:27;;;;;;;;;;;26.00;99.90;;;;;;5032022;28;19953;-85
2022/08/26 12:06:53;;;;;;;;;;;25.90;1.00;;;;;;5016533;28;20036;-84
2022/08/26 12:09:21;;;;;;;;;;;25.90;99.90;;;;;;5031995;28;19963;-86
2022/08/26 12:11:46;;;;;;;;;;;26.00;1.00;;;;;;5016727;28;19909;-85
2022/08/26 12:14:30;;;;;;;;;;;26.00;1.00;;;;;;5016472;28;20411;-87
2022/08/26 12:17:07;;;;;;;;;;;26.10;1.00;;;;;;5031581;28;20391;-90
2022/08/26 12:19:32;;;;;;;;;;;26.20;1.00;;;;;;5034537;28;19957;-88
2022/08/26 12:22:00;;;;;;;;;;;26.20;1.00;;;;;;5020731;28;19951;-89
2022/08/26 12:24:26;;;;;;;;;;;26.30;1.00;;;;;;5015072;28;19960;-88
2022/08/26 12:27:04;;;;;;;;;;;26.30;1.00;;;;;;5016078;28;19960;-88
2022/08/26 12:29:30;;;;;;;;;;;26.10;99.90;;;;;;5014947;28;19910;-88
2022/08/26 12:32:06;;;;;;;;;;;26.00;1.00;;;;;;5016087;28;19916;-89
2022/08/26 12:34:31;;;;;;;;;;;26.00;1.00;;;;;;5032746;28;19909;-88
2022/08/26 12:36:58;;;;;;;;;;;25.70;99.90;;;;;;5020864;28;20507;-88
2022/08/26 12:39:24;;;;;;;;;;;25.70;1.00;;;;;;5035927;28;19909;-88
2022/08/26 12:41:51;;;;;;;;;;;25.70;1.00;;;;;;5034534;28;20257;-89
2022/08/26 12:44:35;;;;;;;;;;;25.70;1.00;;;;;;5034323;28;19913;-87
2022/08/26 12:47:02;;;;;;;;;;;25.60;1.00;;;;;;5033675;28;19949;-88
2022/08/26 12:49:27;;;;;;;;;;;25.60;1.00;;;;;;5050693;28;19909;-88
2022/08/26 12:51:53;;;;;;;;;;;25.50;1.00;;;;;;5049748;28;20004;-88
2022/08/26 12:54:57;;;;;;;;;;;25.40;1.00;;;;;;5034855;28;19909;-88
2022/08/26 12:57:08;;;;;;;;;;;25.40;1.00;;;;;;5034774;28;19917;-86
2022/08/26 12:59:33;;;;;;;;;;;25.20;17.30;;;;;;5034150;28;19916;-88
2022/08/26 13:01:59;;;;;;;;;;;25.30;41.20;;;;;;5050793;28;19909;-88
2022/08/26 13:04:33;;;;;;;;;;;25.30;17.00;;;;;;5033923;28;19963;-88
2022/08/26 13:07:20;;;;;;;;;;;25.40;1.00;;;;;;5033489;28;19909;-88
2022/08/26 13:09:46;;;;;;;;;;;25.50;1.00;;;;;;5033926;28;19995;-88
2022/08/26 13:12:21;;;;;;;;;;;25.50;99.90;;;;;;5034366;28;19992;-87
2022/08/26 13:14:47;;;;;;;;;;;25.40;1.00;;;;;;5050506;28;19916;-86
2022/08/26 13:17:12;;;;;;;;;;;25.40;1.00;;;;;;5034312;28;20011;-86
2022/08/26 13:19:37;;;;;;;;;;;25.40;1.00;;;;;;5033853;28;20335;-87
2022/08/26 13:22:04;;;;;;;;;;;25.40;1.00;;;;;;5033521;28;19909;-85
2022/08/26 13:24:49;;;;;;;;;;;25.40;1.00;;;;;;5033783;28;20250;-86
2022/08/26 13:27:16;;;;;;;;;;;25.40;1.00;;;;;;5033388;28;19950;-86
2022/08/26 13:29:42;;;;;;;;;;;25.50;1.00;;;;;;5028802;28;19909;-87
2022/08/26 13:32:07;;;;;;;;;;;25.40;99.90;;;;;;5029500;28;20384;-86
2022/08/26 13:34:34;;;;;;;;;;;25.50;99.90;;;;;;5028771;28;20405;-85
2022/08/26 13:36:59;;;;;;;;;;;25.60;99.90;;;;;;5028269;28;20365;-87
2022/08/26 13:39:25;;;;;;;;;;;25.60;99.70;;;;;;5031979;28;19909;-86
2022/08/26 13:41:50;;;;;;;;;;;25.60;99.90;;;;;;5026456;28;19916;-84
2022/08/26 13:44:16;;;;;;;;;;;25.50;99.90;;;;;;5033203;28;19916;-85
2022/08/26 13:46:41;;;;;;;;;;;25.40;99.90;;;;;;5032991;28;20004;-85
2022/08/26 13:49:07;;;;;;;;;;;25.30;99.90;;;;;;5033336;28;19944;-87
2022/08/26 13:51:33;;;;;;;;;;;25.20;1.00;;;;;;5034203;28;19909;-88
2022/08/26 13:53:59;;;;;;;;;;;25.00;1.00;;;;;;5032926;28;19924;-87
2022/08/26 13:56:26;;;;;;;;;;;25.10;1.00;;;;;;5032948;28;19909;-89
2022/08/26 13:58:52;;;;;;;;;;;25.30;1.00;;;;;;5032955;28;19944;-87
2022/08/26 14:01:18;;;;;;;;;;;25.20;1.00;;;;;;5018482;28;19910;-87
2022/08/26 14:03:43;;;;;;;;;;;25.30;1.00;;;;;;5014297;28;19948;-86
2022/08/26 14:06:09;;;;;;;;;;;25.30;1.00;;;;;;5012527;28;20373;-87
2022/08/26 14:08:35;;;;;;;;;;;25.30;1.00;;;;;;5029032;28;19909;-86
2022/08/26 14:11:01;;;;;;;;;;;25.20;1.00;;;;;;5013123;28;19910;-87
2022/08/26 14:13:26;;;;;;;;;;;25.20;1.00;;;;;;5013091;28;19917;-87
2022/08/26 14:15:52;;;;;;;;;;;25.00;1.00;;;;;;5014258;28;19909;-87
2022/08/26 14:18:21;;;;;;;;;;;25.10;26.60;;;;;;5014418;28;19966;-87
2022/08/26 14:20:48;;;;;;;;;;;25.00;10.40;;;;;;5013354;28;19909;-87
2022/08/26 14:23:14;;;;;;;;;;;25.00;99.90;;;;;;5013038;28;19916;-87
2022/08/26 14:25:40;;;;;;;;;;;24.90;99.90;;;;;;5030427;28;19995;-89
2022/08/26 14:28:05;;;;;;;;;;;24.90;99.90;;;;;;5039967;28;19905;-86
2022/08/26 14:30:31;;;;;;;;;;;24.80;99.90;;;;;;5032848;28;20361;-86
2022/08/26 14:33:00;;;;;;;;;;;25.00;99.90;;;;;;5049281;28;20011;-86
2022/08/26 14:35:27;;;;;;;;;;;25.50;1.00;;;;;;5032321;28;19944;-86
2022/08/26 14:37:53;;;;;;;;;;;25.70;1.00;;;;;;5032579;28;19935;-86
2022/08/26 14:40:19;;;;;;;;;;;25.90;99.90;;;;;;5033399;28;19967;-86
2022/08/26 14:42:46;;;;;;;;;;;26.00;99.90;;;;;;5032300;28;19909;-85
2022/08/26 14:45:14;;;;;;;;;;;26.20;1.00;;;;;;5032276;28;19932;-86
2022/08/26 14:47:40;;;;;;;;;;;26.50;1.00;;;;;;5031933;28;19909;-86
2022/08/26 14:50:06;;;;;;;;;;;27.00;4.80;;;;;;5032064;28;20296;-87
2022/08/26 14:54:10;;;;;;;;;;;27.60;1.00;;;;;;5028890;28;19959;-88
2022/08/26 14:55:16;;;;;;;;;;;28.30;1.00;;;;;;5013432;28;19909;-86
2022/08/26 14:57:42;;;;;;;;;;;28.60;99.90;;;;;;5011943;28;19917;-86
2022/08/26 15:00:08;;;;;;;;;;;28.40;99.90;;;;;;5012120;28;20408;-86
2022/08/26 15:02:33;;;;;;;;;;;28.70;99.90;;;;;;5012330;28;20000;-84
2022/08/26 15:04:59;;;;;;;;;;;29.00;83.80;;;;;;5012861;28;19909;-88
2022/08/26 15:07:25;;;;;;;;;;;28.90;1.00;;;;;;5023972;28;20005;-86
2022/08/26 15:09:51;;;;;;;;;;;28.60;91.70;;;;;;5067006;22;19948;-78
2022/08/26 15:12:16;;;;;;;;;;;28.20;99.90;;;;;;5073254;28;19912;-77
2022/08/26 15:14:42;;;;;;;;;;;28.00;99.90;;;;;;5055197;28;19909;-78
2022/08/26 15:17:07;;;;;;;;;;;28.00;99.90;;;;;;5051106;28;19921;-78
2022/08/26 15:19:33;;;;;;;;;;;27.90;99.90;;;;;;5058597;28;19909;-77
2022/08/26 15:21:59;;;;;;;;;;;27.70;99.90;;;;;;5051209;28;19909;-76
2022/08/26 15:24:25;;;;;;;;;;;27.30;1.00;;;;;;5051016;28;19920;-77
2022/08/26 15:26:51;;;;;;;;;;;27.00;99.90;;;;;;5050382;28;20014;-76
2022/08/26 15:29:19;;;;;;;;;;;26.90;99.90;;;;;;5033660;28;22201;-76
2022/08/26 15:31:44;;;;;;;;;;;26.80;1.00;;;;;;5049280;28;19920;-76
2022/08/26 15:34:10;;;;;;;;;;;26.70;99.90;;;;;;5066065;28;19913;-76
2022/08/26 15:36:36;;;;;;;;;;;26.50;99.90;;;;;;5069887;28;19908;-76
2022/08/26 15:39:04;;;;;;;;;;;26.40;1.00;;;;;;5070394;28;20014;-77
2022/08/26 15:41:30;;;;;;;;;;;26.30;1.00;;;;;;5061759;28;19916;-76
2022/08/26 15:43:56;;;;;;;;;;;26.30;99.90;;;;;;5070570;28;20284;-76
2022/08/26 15:46:21;;;;;;;;;;;26.20;99.90;;;;;;5067491;28;20401;-75
2022/08/26 15:48:51;;;;;;;;;;;26.20;99.90;;;;;;5062931;28;19912;-76
2022/08/26 15:51:19;;;;;;;;;;;26.10;1.00;;;;;;5060921;28;19920;-76
2022/08/26 15:53:45;;;;;;;;;;;26.00;1.00;;;;;;5058040;28;19992;-76
2022/08/26 15:56:10;;;;;;;;;;;25.90;1.00;;;;;;5052301;28;19995;-76
2022/08/26 15:58:36;;;;;;;;;;;25.90;84.50;;;;;;5070255;28;20255;-72
2022/08/26 16:01:01;;;;;;;;;;;25.80;99.90;;;;;;5070001;28;20402;-75
2022/08/26 16:03:27;;;;;;;;;;;25.70;1.00;;;;;;5070277;28;19908;-77
2022/08/26 16:05:53;;;;;;;;;;;25.80;99.90;;;;;;5070258;28;20395;-76
2022/08/26 16:08:19;;;;;;;;;;;25.60;1.00;;;;;;5070945;28;19909;-76
2022/08/26 16:10:45;;;;;;;;;;;25.60;1.00;;;;;;5071157;28;19920;-77
2022/08/26 16:13:11;;;;;;;;;;;25.60;99.90;;;;;;5071953;28;19913;-77
2022/08/26 16:15:37;;;;;;;;;;;25.60;99.90;;;;;;5065502;28;19987;-76
2022/08/26 16:18:03;;;;;;;;;;;25.70;99.90;;;;;;5064007;28;19913;-76
2022/08/26 16:20:29;;;;;;;;;;;25.60;1.00;;;;;;5068743;28;19909;-76
2022/08/26 16:22:55;;;;;;;;;;;25.60;1.00;;;;;;5070167;28;19913;-77
2022/08/26 16:25:21;;;;;;;;;;;25.50;11.20;;;;;;5070010;28;20491;-77
2022/08/26 16:27:46;;;;;;;;;;;25.60;1.00;;;;;;5061386;28;19912;-76
2022/08/26 16:30:12;;;;;;;;;;;25.50;1.00;;;;;;5062877;28;19915;-76
2022/08/26 16:32:38;;;;;;;;;;;25.40;99.90;;;;;;5073871;28;19908;-76
2022/08/26 16:35:04;;;;;;;;;;;25.30;99.90;;;;;;5073618;28;19908;-76
2022/08/26 16:37:30;;;;;;;;;;;25.30;99.90;;;;;;5073423;28;19912;-76
2022/08/26 16:39:55;;;;;;;;;;;25.10;1.00;;;;;;5074179;28;19916;-76
2022/08/26 16:42:21;;;;;;;;;;;25.00;1.00;;;;;;5073702;28;20390;-76
2022/08/26 16:44:47;;;;;;;;;;;24.80;99.90;;;;;;5073329;28;20374;-75
2022/08/26 16:47:13;;;;;;;;;;;24.90;99.90;;;;;;5073662;28;19909;-76
2022/08/26 16:49:39;;;;;;;;;;;24.80;21.60;;;;;;5073486;28;19923;-75
2022/08/26 16:52:05;;;;;;;;;;;24.60;99.90;;;;;;5073361;28;19913;-76
2022/08/26 16:54:31;;;;;;;;;;;24.40;99.90;;;;;;5074202;28;19908;-78
2022/08/26 16:59:33;;;;;;;;;;;24.30;99.90;;;;;;5040004;28;19932;-84
2022/08/26 17:01:59;;;;;;;;;;;24.30;99.90;;;;;;5045466;28;20254;-87
2022/08/26 17:04:25;;;;;;;;;;;24.20;99.90;;;;;;5053674;28;19909;-86
2022/08/26 17:06:50;;;;;;;;;;;24.20;99.90;;;;;;5053326;28;20386;-86
2022/08/26 17:09:16;;;;;;;;;;;24.20;99.90;;;;;;5053651;28;19960;-85
2022/08/26 17:11:42;;;;;;;;;;;24.20;99.90;;;;;;5054210;28;19909;-86
2022/08/26 17:14:07;;;;;;;;;;;24.10;99.90;;;;;;5053759;28;20011;-85
2022/08/26 17:16:33;;;;;;;;;;;24.00;99.90;;;;;;5052883;28;19967;-85